Time;durP1;ratioP1;P1;durP2;ratioP2;P2;SDS_P1;SDS_P2;PMS_P1;PMS_P2;Temp;Humidity;BMP_temperature;BMP_pressure;BME280_temperature;BME280_humidity;BME280_pressure;Samples;Min_cycle;Max_cycle;Signal;HPM_P1;HPM_P2
2023/07/22 00:00:37;;;;;;;11.27;4.53;;;;;;;;;;4970586;28;20447;-72
2023/07/22 00:03:02;;;;;;;11.90;4.37;;;;;;;;;;4988718;28;20383;-71
2023/07/22 00:05:28;;;;;;;11.20;4.40;;;;;;;;;;4983646;28;20487;-72
2023/07/22 00:07:53;;;;;;;9.20;4.60;;;;;;;;;;4981269;28;20022;-69
2023/07/22 00:10:18;;;;;;;8.30;4.37;;;;;;;;;;4988268;28;20788;-72
2023/07/22 00:12:43;;;;;;;8.03;4.13;;;;;;;;;;5012099;28;20470;-73
2023/07/22 00:15:11;;;;;;;9.07;4.57;;;;;;;;;;4988170;28;20276;-68
2023/07/22 00:17:37;;;;;;;9.50;4.38;;;;;;;;;;4987920;28;20023;-69
2023/07/22 00:20:04;;;;;;;8.63;4.40;;;;;;;;;;4983274;28;20043;-74
2023/07/22 00:22:29;;;;;;;10.75;5.43;;;;;;;;;;4977012;28;20046;-66
2023/07/22 00:24:54;;;;;;;11.87;5.20;;;;;;;;;;4997828;28;20030;-72
2023/07/22 00:27:20;;;;;;;11.63;4.70;;;;;;;;;;5007321;28;20322;-67
2023/07/22 00:29:45;;;;;;;7.57;4.40;;;;;;;;;;4988615;28;20894;-70
2023/07/22 00:32:10;;;;;;;8.57;4.33;;;;;;;;;;4999987;28;20400;-71
2023/07/22 00:34:36;;;;;;;9.63;4.57;;;;;;;;;;4987086;28;20063;-75
2023/07/22 00:37:02;;;;;;;11.18;4.63;;;;;;;;;;4987382;28;20346;-74
2023/07/22 00:39:27;;;;;;;10.32;4.50;;;;;;;;;;4987106;28;20031;-72
2023/07/22 00:41:52;;;;;;;7.80;4.50;;;;;;;;;;5003042;28;20245;-75
2023/07/22 00:44:17;;;;;;;7.60;4.33;;;;;;;;;;4987288;28;20708;-73
2023/07/22 00:46:42;;;;;;;8.33;4.60;;;;;;;;;;4985832;28;20034;-71
2023/07/22 00:49:08;;;;;;;10.37;4.50;;;;;;;;;;4987204;28;20053;-72
2023/07/22 00:51:33;;;;;;;8.88;4.30;;;;;;;;;;4986661;28;20352;-71
2023/07/22 00:53:58;;;;;;;10.15;4.85;;;;;;;;;;4986876;28;20117;-72
2023/07/22 00:56:24;;;;;;;9.30;4.77;;;;;;;;;;4986650;28;20396;-68
2023/07/22 00:58:49;;;;;;;9.43;4.38;;;;;;;;;;4984546;28;20273;-70
2023/07/22 01:01:14;;;;;;;13.13;4.77;;;;;;;;;;4985770;28;20030;-69
2023/07/22 01:03:41;;;;;;;9.07;4.33;;;;;;;;;;4987443;28;20276;-71
2023/07/22 01:06:06;;;;;;;10.88;4.43;;;;;;;;;;4981780;28;20415;-65
2023/07/22 01:08:32;;;;;;;7.75;4.28;;;;;;;;;;4984531;28;20046;-72
2023/07/22 01:10:58;;;;;;;10.83;4.90;;;;;;;;;;4989636;28;20037;-72
2023/07/22 01:13:24;;;;;;;11.15;4.85;;;;;;;;;;4976585;28;20122;-72
2023/07/22 01:15:49;;;;;;;9.17;4.70;;;;;;;;;;4986198;28;20130;-72
2023/07/22 01:18:14;;;;;;;9.13;4.22;;;;;;;;;;4984679;28;20069;-71
2023/07/22 01:20:39;;;;;;;11.67;4.90;;;;;;;;;;5003829;28;20096;-72
2023/07/22 01:23:06;;;;;;;10.50;4.67;;;;;;;;;;4986807;28;20100;-69
2023/07/22 01:25:31;;;;;;;9.95;4.38;;;;;;;;;;4986118;28;20034;-70
2023/07/22 01:27:57;;;;;;;7.97;4.77;;;;;;;;;;4985132;28;20030;-70
2023/07/22 01:30:22;;;;;;;7.83;4.33;;;;;;;;;;4981811;28;20262;-71
2023/07/22 01:32:47;;;;;;;10.35;4.60;;;;;;;;;;4966858;28;20321;-75
2023/07/22 01:35:13;;;;;;;7.83;4.17;;;;;;;;;;4996323;28;20042;-75
2023/07/22 01:37:38;;;;;;;8.32;4.60;;;;;;;;;;4986353;28;20645;-68
2023/07/22 01:40:13;;;;;;;10.20;4.90;;;;;;;;;;4986245;28;20053;-74
2023/07/22 01:42:39;;;;;;;8.55;4.43;;;;;;;;;;4986085;28;20997;-74
2023/07/22 01:45:07;;;;;;;10.00;4.70;;;;;;;;;;5001101;28;20045;-75
2023/07/22 01:47:32;;;;;;;9.93;4.68;;;;;;;;;;4985809;28;20035;-75
2023/07/22 01:49:58;;;;;;;8.68;4.68;;;;;;;;;;4986080;28;20035;-66
2023/07/22 01:52:23;;;;;;;10.23;4.70;;;;;;;;;;4985732;28;20426;-73
2023/07/22 01:54:48;;;;;;;7.78;4.53;;;;;;;;;;4986040;28;20450;-70
2023/07/22 01:57:14;;;;;;;7.93;4.40;;;;;;;;;;4985495;28;20826;-69
2023/07/22 01:59:39;;;;;;;10.80;4.90;;;;;;;;;;4986639;28;20277;-74
2023/07/22 02:02:05;;;;;;;9.67;4.70;;;;;;;;;;4985076;28;20541;-70
2023/07/22 02:04:30;;;;;;;6.32;4.38;;;;;;;;;;5000838;28;20326;-69
2023/07/22 02:06:56;;;;;;;7.07;4.78;;;;;;;;;;4984333;28;20030;-71
2023/07/22 02:09:21;;;;;;;9.37;4.60;;;;;;;;;;4984345;28;20210;-68
2023/07/22 02:11:46;;;;;;;9.93;5.40;;;;;;;;;;4989871;28;20081;-70
2023/07/22 02:14:12;;;;;;;8.80;4.80;;;;;;;;;;4984655;28;20289;-73
2023/07/22 02:16:38;;;;;;;7.18;4.22;;;;;;;;;;4984226;28;20840;-72
2023/07/22 02:19:03;;;;;;;8.90;4.40;;;;;;;;;;5001125;28;20023;-74
2023/07/22 02:21:29;;;;;;;7.80;4.47;;;;;;;;;;4985572;28;20360;-70
2023/07/22 02:23:54;;;;;;;9.75;4.95;;;;;;;;;;4984169;28;20038;-67
2023/07/22 02:26:19;;;;;;;9.93;4.83;;;;;;;;;;4983560;28;20504;-69
2023/07/22 02:28:46;;;;;;;9.10;5.10;;;;;;;;;;4985620;28;20407;-72
2023/07/22 02:31:11;;;;;;;10.25;5.00;;;;;;;;;;4985614;28;20092;-72
2023/07/22 02:33:37;;;;;;;9.37;4.80;;;;;;;;;;4983998;28;20376;-74
2023/07/22 02:36:03;;;;;;;11.52;4.90;;;;;;;;;;4982175;28;20039;-71
2023/07/22 02:38:28;;;;;;;10.85;5.07;;;;;;;;;;4984002;28;20285;-70
2023/07/22 02:40:53;;;;;;;10.10;4.75;;;;;;;;;;4985167;28;20050;-73
2023/07/22 02:43:19;;;;;;;8.20;5.30;;;;;;;;;;5000416;28;20046;-75
2023/07/22 02:45:44;;;;;;;11.27;5.07;;;;;;;;;;5000269;28;20053;-67
2023/07/22 02:48:09;;;;;;;9.07;5.30;;;;;;;;;;4983914;28;20030;-73
2023/07/22 02:50:34;;;;;;;10.50;4.65;;;;;;;;;;4984160;28;20657;-70
2023/07/22 02:53:00;;;;;;;10.43;5.40;;;;;;;;;;5000164;28;20053;-73
2023/07/22 02:55:25;;;;;;;10.63;5.25;;;;;;;;;;5000284;28;20899;-71
2023/07/22 02:57:51;;;;;;;8.70;4.70;;;;;;;;;;4984838;28;20565;-74
2023/07/22 03:00:23;;;;;;;9.50;4.85;;;;;;;;;;4984527;28;20293;-73
2023/07/22 03:02:49;;;;;;;8.05;4.95;;;;;;;;;;4989360;28;20120;-71
2023/07/22 03:05:14;;;;;;;8.98;5.00;;;;;;;;;;5004325;28;20085;-70
2023/07/22 03:07:40;;;;;;;7.88;4.85;;;;;;;;;;4988994;28;20465;-71
2023/07/22 03:10:06;;;;;;;11.68;6.85;;;;;;;;;;4989075;28;20131;-69
2023/07/22 03:12:31;;;;;;;11.35;6.68;;;;;;;;;;5011893;28;20056;-72
2023/07/22 03:14:56;;;;;;;13.23;8.25;;;;;;;;;;5002144;28;20030;-71
2023/07/22 03:17:22;;;;;;;8.57;6.20;;;;;;;;;;4987471;28;20475;-72
2023/07/22 03:19:47;;;;;;;8.88;5.85;;;;;;;;;;4988929;28;20520;-73
2023/07/22 03:22:13;;;;;;;14.03;6.17;;;;;;;;;;4987819;28;20041;-72
2023/07/22 03:24:38;;;;;;;9.40;5.70;;;;;;;;;;5004273;28;20285;-69
2023/07/22 03:27:04;;;;;;;10.43;6.57;;;;;;;;;;4988653;28;20137;-73
2023/07/22 03:29:29;;;;;;;9.35;5.63;;;;;;;;;;4989116;28;20030;-68
2023/07/22 03:31:54;;;;;;;9.23;5.38;;;;;;;;;;4988899;28;20442;-72
2023/07/22 03:34:19;;;;;;;8.80;5.53;;;;;;;;;;4987123;28;20125;-66
2023/07/22 03:36:46;;;;;;;8.37;5.43;;;;;;;;;;4989076;28;20277;-71
2023/07/22 03:39:11;;;;;;;9.32;5.30;;;;;;;;;;4988219;28;20277;-74
2023/07/22 03:41:36;;;;;;;11.37;5.60;;;;;;;;;;4988642;28;20126;-73
2023/07/22 03:44:02;;;;;;;8.47;4.97;;;;;;;;;;4988790;28;20714;-74
2023/07/22 03:46:27;;;;;;;8.57;5.55;;;;;;;;;;4987901;28;20483;-75
2023/07/22 03:48:54;;;;;;;8.97;5.07;;;;;;;;;;4988648;28;20566;-75
2023/07/22 03:51:19;;;;;;;9.75;5.22;;;;;;;;;;4987039;28;20078;-73
2023/07/22 03:53:44;;;;;;;7.82;4.68;;;;;;;;;;4988636;28;20035;-68
2023/07/22 03:56:09;;;;;;;10.30;5.10;;;;;;;;;;4986722;28;20030;-70
2023/07/22 03:58:35;;;;;;;8.93;4.83;;;;;;;;;;4987633;28;20269;-70
2023/07/22 04:01:00;;;;;;;7.70;5.10;;;;;;;;;;4983718;28;20483;-73
2023/07/22 04:03:25;;;;;;;8.10;4.80;;;;;;;;;;4969375;28;20274;-71
2023/07/22 04:05:54;;;;;;;9.33;4.87;;;;;;;;;;4977092;28;20281;-73
2023/07/22 04:08:19;;;;;;;8.67;4.73;;;;;;;;;;4987733;28;20121;-72
2023/07/22 04:10:51;;;;;;;8.77;5.03;;;;;;;;;;4989825;28;20369;-69
2023/07/22 04:13:16;;;;;;;10.48;5.22;;;;;;;;;;4987387;28;20084;-73
2023/07/22 04:15:41;;;;;;;8.50;5.05;;;;;;;;;;4987566;28;20034;-71
2023/07/22 04:18:06;;;;;;;9.87;5.00;;;;;;;;;;4996278;28;20033;-71
2023/07/22 04:20:32;;;;;;;9.40;4.90;;;;;;;;;;4999546;28;20168;-73
2023/07/22 04:22:57;;;;;;;8.53;4.80;;;;;;;;;;4993543;28;20269;-70
2023/07/22 04:25:22;;;;;;;7.83;4.90;;;;;;;;;;4989636;28;20038;-70
2023/07/22 04:27:47;;;;;;;9.87;5.57;;;;;;;;;;4986601;28;20736;-74
2023/07/22 04:30:20;;;;;;;9.43;5.43;;;;;;;;;;4995051;28;20288;-74
2023/07/22 04:32:45;;;;;;;8.45;4.90;;;;;;;;;;4994975;28;20763;-70
2023/07/22 04:35:10;;;;;;;7.80;5.07;;;;;;;;;;4988946;28;20022;-70
2023/07/22 04:37:36;;;;;;;10.93;5.50;;;;;;;;;;5004606;28;20096;-73
2023/07/22 04:40:02;;;;;;;6.47;4.50;;;;;;;;;;4996352;28;20315;-73
2023/07/22 04:42:27;;;;;;;10.05;5.32;;;;;;;;;;4990261;28;20022;-73
2023/07/22 04:44:52;;;;;;;7.75;4.70;;;;;;;;;;4990468;28;20033;-75
2023/07/22 04:47:18;;;;;;;8.83;5.50;;;;;;;;;;4985633;28;20022;-76
2023/07/22 04:49:43;;;;;;;9.07;5.17;;;;;;;;;;4987155;28;20306;-71
2023/07/22 04:52:08;;;;;;;14.67;5.27;;;;;;;;;;4984564;28;20309;-70
2023/07/22 04:54:33;;;;;;;9.35;5.50;;;;;;;;;;4987281;28;20313;-70
2023/07/22 04:56:59;;;;;;;12.77;5.23;;;;;;;;;;4986347;28;20505;-73
2023/07/22 04:59:25;;;;;;;9.27;5.47;;;;;;;;;;5002045;28;20316;-69
2023/07/22 05:01:50;;;;;;;13.00;6.47;;;;;;;;;;4987679;28;20061;-70
2023/07/22 05:04:15;;;;;;;12.02;6.65;;;;;;;;;;4985306;28;20044;-70
2023/07/22 05:06:40;;;;;;;8.97;5.50;;;;;;;;;;4989680;28;20103;-74
2023/07/22 05:09:06;;;;;;;14.13;5.70;;;;;;;;;;5004353;28;20273;-73
2023/07/22 05:11:31;;;;;;;11.05;5.63;;;;;;;;;;5005254;28;20129;-72
2023/07/22 05:13:57;;;;;;;10.75;6.25;;;;;;;;;;5012779;28;20463;-72
2023/07/22 05:16:22;;;;;;;11.93;5.88;;;;;;;;;;5000110;28;20597;-69
2023/07/22 05:18:47;;;;;;;10.35;5.30;;;;;;;;;;4984814;28;20031;-76
2023/07/22 05:21:13;;;;;;;9.88;5.57;;;;;;;;;;4992694;28;20045;-71
2023/07/22 05:23:38;;;;;;;8.90;5.97;;;;;;;;;;5005403;28;20026;-73
2023/07/22 05:26:03;;;;;;;10.90;6.07;;;;;;;;;;4998144;28;20829;-75
2023/07/22 05:28:29;;;;;;;9.75;6.03;;;;;;;;;;4985584;28;20281;-69
2023/07/22 05:30:55;;;;;;;9.50;6.13;;;;;;;;;;4982769;28;20122;-73
2023/07/22 05:33:20;;;;;;;10.13;6.50;;;;;;;;;;4969719;28;20065;-72
2023/07/22 05:35:45;;;;;;;9.70;6.20;;;;;;;;;;4982299;28;20031;-73
2023/07/22 05:38:11;;;;;;;11.87;6.80;;;;;;;;;;4980966;28;20038;-66
2023/07/22 05:40:36;;;;;;;13.77;6.30;;;;;;;;;;4989305;28;20300;-74
2023/07/22 05:43:01;;;;;;;9.67;6.50;;;;;;;;;;4973887;28;20477;-68
2023/07/22 05:45:26;;;;;;;11.87;6.67;;;;;;;;;;4971297;28;20069;-72
2023/07/22 05:47:52;;;;;;;14.27;6.85;;;;;;;;;;4971982;28;20039;-68
2023/07/22 05:50:17;;;;;;;10.60;6.47;;;;;;;;;;4972331;28;20106;-69
2023/07/22 05:52:43;;;;;;;12.38;6.75;;;;;;;;;;4971739;28;20569;-67
2023/07/22 05:55:08;;;;;;;10.57;6.88;;;;;;;;;;4953995;28;20038;-73
2023/07/22 05:57:34;;;;;;;13.00;6.90;;;;;;;;;;4974015;28;20027;-72
2023/07/22 05:59:59;;;;;;;11.43;6.95;;;;;;;;;;4980460;28;20133;-66
2023/07/22 06:02:24;;;;;;;12.33;6.70;;;;;;;;;;4973311;28;20561;-68
2023/07/22 06:04:50;;;;;;;9.50;6.60;;;;;;;;;;4973317;28;20926;-66
2023/07/22 06:07:15;;;;;;;9.40;6.27;;;;;;;;;;4973898;28;20277;-70
2023/07/22 06:09:40;;;;;;;10.90;6.53;;;;;;;;;;4971348;28;20043;-70
2023/07/22 06:12:05;;;;;;;11.87;6.53;;;;;;;;;;4971536;28;20038;-70
2023/07/22 06:14:31;;;;;;;10.35;6.78;;;;;;;;;;4988845;28;20604;-73
2023/07/22 06:16:56;;;;;;;11.13;6.70;;;;;;;;;;4973138;28;20661;-69
2023/07/22 06:19:23;;;;;;;13.43;6.60;;;;;;;;;;4971719;28;20043;-72
2023/07/22 06:21:48;;;;;;;11.85;6.22;;;;;;;;;;4986941;28;20491;-68
2023/07/22 06:24:14;;;;;;;10.82;6.38;;;;;;;;;;4969602;28;20058;-72
2023/07/22 06:26:39;;;;;;;8.93;5.97;;;;;;;;;;4985247;28;20038;-72
2023/07/22 06:29:04;;;;;;;13.33;7.10;;;;;;;;;;4971134;28;20726;-67
2023/07/22 06:31:30;;;;;;;12.23;6.27;;;;;;;;;;4968977;28;20530;-65
2023/07/22 06:33:56;;;;;;;12.60;6.93;;;;;;;;;;4954883;28;20398;-68
2023/07/22 06:36:22;;;;;;;13.90;7.35;;;;;;;;;;4972334;28;20042;-72
2023/07/22 06:38:47;;;;;;;12.40;7.28;;;;;;;;;;4986178;28;20034;-70
2023/07/22 06:41:12;;;;;;;12.65;7.55;;;;;;;;;;4979043;28;20544;-69
2023/07/22 06:43:38;;;;;;;11.17;6.90;;;;;;;;;;4994691;28;20034;-73
2023/07/22 06:46:03;;;;;;;11.80;7.00;;;;;;;;;;4985464;28;20355;-69
2023/07/22 06:48:28;;;;;;;13.73;7.00;;;;;;;;;;4981094;28;20081;-73
2023/07/22 06:50:53;;;;;;;14.83;7.50;;;;;;;;;;4981273;28;20042;-68
2023/07/22 06:53:19;;;;;;;12.43;7.43;;;;;;;;;;4976123;28;20108;-71
2023/07/22 06:55:51;;;;;;;11.43;6.72;;;;;;;;;;4978221;28;20313;-66
2023/07/22 06:58:16;;;;;;;14.82;7.50;;;;;;;;;;4979347;28;20125;-71
2023/07/22 07:00:41;;;;;;;14.00;6.85;;;;;;;;;;4973746;28;20161;-69
2023/07/22 07:03:07;;;;;;;12.93;7.55;;;;;;;;;;4973573;28;20069;-71
2023/07/22 07:05:32;;;;;;;11.70;6.27;;;;;;;;;;4981015;28;20111;-70
2023/07/22 07:07:57;;;;;;;12.00;6.82;;;;;;;;;;4971290;28;20487;-71
2023/07/22 07:10:22;;;;;;;11.47;6.60;;;;;;;;;;4968916;28;20148;-71
2023/07/22 07:12:48;;;;;;;11.70;6.80;;;;;;;;;;4969785;28;20142;-71
2023/07/22 07:15:13;;;;;;;10.07;6.13;;;;;;;;;;4969840;28;20654;-69
2023/07/22 07:17:38;;;;;;;10.95;6.65;;;;;;;;;;4968422;28;20038;-67
2023/07/22 07:20:05;;;;;;;13.47;8.00;;;;;;;;;;4971031;28;20458;-72
2023/07/22 07:22:30;;;;;;;11.18;7.28;;;;;;;;;;4969595;28;20293;-68
2023/07/22 07:24:55;;;;;;;13.00;7.07;;;;;;;;;;4969769;28;20712;-71
2023/07/22 07:27:20;;;;;;;15.77;7.80;;;;;;;;;;4969167;28;20486;-71
2023/07/22 07:29:46;;;;;;;10.30;6.80;;;;;;;;;;4970075;28;20289;-70
2023/07/22 07:32:11;;;;;;;9.27;6.70;;;;;;;;;;4967720;28;20117;-66
2023/07/22 07:34:36;;;;;;;9.90;6.57;;;;;;;;;;4971930;28;20290;-71
2023/07/22 07:37:02;;;;;;;10.33;6.70;;;;;;;;;;4969881;28;20137;-71
2023/07/22 07:39:28;;;;;;;11.20;6.72;;;;;;;;;;4970823;28;20041;-73
2023/07/22 07:41:54;;;;;;;10.35;6.07;;;;;;;;;;4970894;28;20046;-70
2023/07/22 07:44:19;;;;;;;9.95;6.25;;;;;;;;;;4969425;28;20039;-78
2023/07/22 07:46:44;;;;;;;13.35;7.53;;;;;;;;;;4969303;28;20035;-69
2023/07/22 07:49:10;;;;;;;11.35;7.38;;;;;;;;;;4974456;28;20035;-73
2023/07/22 07:51:35;;;;;;;11.73;7.75;;;;;;;;;;4975248;28;20058;-70
2023/07/22 07:54:00;;;;;;;11.83;7.40;;;;;;;;;;4979459;28;20538;-75
2023/07/22 07:56:26;;;;;;;10.95;6.93;;;;;;;;;;4971850;28;20502;-74
2023/07/22 07:58:51;;;;;;;11.27;7.27;;;;;;;;;;4978137;28;20966;-76
2023/07/22 08:01:17;;;;;;;11.70;7.10;;;;;;;;;;4991939;28;20450;-70
2023/07/22 08:03:42;;;;;;;9.55;7.00;;;;;;;;;;4986035;28;20562;-78
2023/07/22 08:06:08;;;;;;;15.15;7.32;;;;;;;;;;4975597;28;20474;-70
2023/07/22 08:08:33;;;;;;;10.95;6.80;;;;;;;;;;4978776;28;20050;-74
2023/07/22 08:11:02;;;;;;;13.85;7.40;;;;;;;;;;4974864;28;20033;-69
2023/07/22 08:13:29;;;;;;;11.38;7.57;;;;;;;;;;4990945;28;20129;-69
2023/07/22 08:15:55;;;;;;;10.70;7.15;;;;;;;;;;4976213;28;20015;-72
2023/07/22 08:18:20;;;;;;;14.48;7.80;;;;;;;;;;4976559;28;20089;-72
2023/07/22 08:20:47;;;;;;;12.87;8.30;;;;;;;;;;4977071;28;20507;-70
2023/07/22 08:23:12;;;;;;;11.30;7.30;;;;;;;;;;4976417;28;20622;-80
2023/07/22 08:25:37;;;;;;;12.67;7.40;;;;;;;;;;4989387;28;20023;-71
2023/07/22 08:28:03;;;;;;;14.27;7.57;;;;;;;;;;4969810;28;20369;-74
2023/07/22 08:30:28;;;;;;;12.43;7.97;;;;;;;;;;4975709;28;20050;-69
2023/07/22 08:32:53;;;;;;;10.57;7.53;;;;;;;;;;4978050;28;20309;-70
2023/07/22 08:35:18;;;;;;;15.33;8.60;;;;;;;;;;4973551;28;20383;-65
2023/07/22 08:37:44;;;;;;;11.98;7.68;;;;;;;;;;4974139;28;20022;-73
2023/07/22 08:40:09;;;;;;;11.80;7.57;;;;;;;;;;4971801;28;20500;-73
2023/07/22 08:42:34;;;;;;;12.77;7.50;;;;;;;;;;4989507;28;20067;-73
2023/07/22 08:45:00;;;;;;;12.00;8.03;;;;;;;;;;4973477;28;20026;-71
2023/07/22 08:47:25;;;;;;;12.55;7.47;;;;;;;;;;4975080;28;20041;-74
2023/07/22 08:49:51;;;;;;;11.98;7.63;;;;;;;;;;4975215;28;20177;-72
2023/07/22 08:52:17;;;;;;;17.30;8.18;;;;;;;;;;4973559;28;20043;-69
2023/07/22 08:54:42;;;;;;;14.23;7.25;;;;;;;;;;4971724;28;20018;-70
2023/07/22 08:57:08;;;;;;;11.82;7.53;;;;;;;;;;4987812;28;20454;-76
2023/07/22 08:59:33;;;;;;;12.00;7.18;;;;;;;;;;4984992;28;20358;-74
2023/07/22 09:01:58;;;;;;;11.00;7.57;;;;;;;;;;4971502;28;20574;-74
2023/07/22 09:04:23;;;;;;;12.57;8.03;;;;;;;;;;4969240;28;20530;-70
2023/07/22 09:06:49;;;;;;;11.20;8.00;;;;;;;;;;4972885;28;20609;-71
2023/07/22 09:09:15;;;;;;;11.53;7.90;;;;;;;;;;4988193;28;20289;-76
2023/07/22 09:11:40;;;;;;;11.75;7.13;;;;;;;;;;4973833;28;20368;-75
2023/07/22 09:14:06;;;;;;;12.38;7.40;;;;;;;;;;4988702;28;20098;-72
2023/07/22 09:16:31;;;;;;;14.30;7.85;;;;;;;;;;4987955;28;20022;-77
2023/07/22 09:18:57;;;;;;;13.57;7.97;;;;;;;;;;4987269;28;20475;-71
2023/07/22 09:21:22;;;;;;;11.75;7.72;;;;;;;;;;4986133;28;20398;-78
2023/07/22 09:23:48;;;;;;;13.48;7.85;;;;;;;;;;4986653;28;20038;-78
2023/07/22 09:26:14;;;;;;;13.17;7.60;;;;;;;;;;4986635;28;20042;-75
2023/07/22 09:28:56;;;;;;;12.63;7.82;;;;;;;;;;4987168;28;20289;-74
2023/07/22 09:31:21;;;;;;;14.00;7.97;;;;;;;;;;4985953;28;20038;-77
2023/07/22 09:33:47;;;;;;;12.35;7.30;;;;;;;;;;4986374;28;20100;-76
2023/07/22 09:36:13;;;;;;;13.27;7.97;;;;;;;;;;4984979;28;20022;-77
2023/07/22 09:38:38;;;;;;;11.98;7.40;;;;;;;;;;4985966;28;20038;-67
2023/07/22 09:41:03;;;;;;;12.93;7.13;;;;;;;;;;4985989;28;20477;-74
2023/07/22 09:43:29;;;;;;;12.00;7.50;;;;;;;;;;4986065;28;20046;-72
2023/07/22 09:45:54;;;;;;;14.07;7.78;;;;;;;;;;4968590;28;20031;-73
2023/07/22 09:48:21;;;;;;;12.73;8.40;;;;;;;;;;4986022;28;20038;-73
2023/07/22 09:50:46;;;;;;;11.98;7.20;;;;;;;;;;4985464;28;20030;-76
2023/07/22 09:53:14;;;;;;;12.90;8.23;;;;;;;;;;4985910;28;20060;-71
2023/07/22 09:55:39;;;;;;;12.52;7.68;;;;;;;;;;4985596;28;20034;-74
2023/07/22 09:58:05;;;;;;;12.37;7.20;;;;;;;;;;4985565;28;20403;-68
2023/07/22 10:00:31;;;;;;;10.43;6.97;;;;;;;;;;4985639;28;20034;-72
2023/07/22 10:02:57;;;;;;;13.77;7.47;;;;;;;;;;4965105;28;20315;-74
2023/07/22 10:05:22;;;;;;;11.07;7.70;;;;;;;;;;4983956;28;20102;-77
2023/07/22 10:07:48;;;;;;;11.40;7.40;;;;;;;;;;4986018;28;20057;-71
2023/07/22 10:10:14;;;;;;;10.30;6.90;;;;;;;;;;4985338;28;20069;-76
2023/07/22 10:12:41;;;;;;;11.40;7.15;;;;;;;;;;4981116;28;20046;-71
2023/07/22 10:15:07;;;;;;;11.70;7.13;;;;;;;;;;4984360;28;20026;-71
2023/07/22 10:17:32;;;;;;;9.05;6.22;;;;;;;;;;5000594;28;20040;-70
2023/07/22 10:19:58;;;;;;;9.60;6.30;;;;;;;;;;4984158;28;20117;-72
2023/07/22 10:22:23;;;;;;;11.20;6.82;;;;;;;;;;4984734;28;20092;-74
2023/07/22 10:24:48;;;;;;;10.88;7.22;;;;;;;;;;4985623;28;20133;-72
2023/07/22 10:27:14;;;;;;;9.50;6.60;;;;;;;;;;4984448;28;20518;-71
2023/07/22 10:29:39;;;;;;;11.38;6.90;;;;;;;;;;4980552;28;20100;-70
2023/07/22 10:32:04;;;;;;;10.30;6.97;;;;;;;;;;4989767;28;20513;-73
2023/07/22 10:34:30;;;;;;;11.60;6.88;;;;;;;;;;4988132;28;20072;-67
2023/07/22 10:36:56;;;;;;;7.97;6.38;;;;;;;;;;5002313;28;20029;-67
2023/07/22 10:39:28;;;;;;;9.77;6.30;;;;;;;;;;4984537;28;20034;-72
2023/07/22 10:42:04;;;;;;;10.30;6.70;;;;;;;;;;4984932;28;20088;-75
2023/07/22 10:44:36;;;;;;;8.95;5.97;;;;;;;;;;4982917;28;20027;-67
2023/07/22 10:47:03;;;;;;;9.85;5.97;;;;;;;;;;4965082;28;20306;-73
2023/07/22 10:49:41;;;;;;;8.48;6.10;;;;;;;;;;4980612;28;20034;-71
2023/07/22 10:52:07;;;;;;;8.55;5.90;;;;;;;;;;4984875;28;20038;-74
2023/07/22 10:54:36;;;;;;;9.30;6.90;;;;;;;;;;4985340;28;20461;-74
2023/07/22 10:57:16;;;;;;;10.18;5.78;;;;;;;;;;4983268;28;20030;-78
2023/07/22 10:59:51;;;;;;;10.38;6.68;;;;;;;;;;4986998;28;20026;-73
2023/07/22 11:02:23;;;;;;;8.10;5.88;;;;;;;;;;4995452;28;20046;-71
2023/07/22 11:04:48;;;;;;;7.32;5.40;;;;;;;;;;4998435;28;20281;-70
2023/07/22 11:07:13;;;;;;;9.07;5.70;;;;;;;;;;4985511;28;20069;-68
2023/07/22 11:09:39;;;;;;;9.10;5.60;;;;;;;;;;4967383;28;20278;-73
2023/07/22 11:12:05;;;;;;;8.10;5.50;;;;;;;;;;4983606;28;20050;-72
2023/07/22 11:14:50;;;;;;;8.55;6.40;;;;;;;;;;5000158;28;20431;-72
2023/07/22 11:17:15;;;;;;;8.60;5.78;;;;;;;;;;4984931;28;20412;-75
2023/07/22 11:19:40;;;;;;;10.25;5.90;;;;;;;;;;4984836;28;20033;-70
2023/07/22 11:22:06;;;;;;;8.87;5.37;;;;;;;;;;4966134;28;20053;-70
2023/07/22 11:24:32;;;;;;;9.02;5.60;;;;;;;;;;4988151;28;20451;-73
2023/07/22 11:26:57;;;;;;;10.80;5.30;;;;;;;;;;4994014;28;20037;-68
2023/07/22 11:29:23;;;;;;;8.70;5.37;;;;;;;;;;5002982;28;20088;-69
2023/07/22 11:31:48;;;;;;;6.82;4.90;;;;;;;;;;4987148;23;20062;-70
2023/07/22 11:34:21;;;;;;;7.45;5.30;;;;;;;;;;4985471;28;20021;-69
2023/07/22 11:36:46;;;;;;;7.60;5.30;;;;;;;;;;4987673;28;20034;-70
2023/07/22 11:39:13;;;;;;;9.85;5.05;;;;;;;;;;4989535;28;20038;-69
2023/07/22 11:41:38;;;;;;;8.20;5.00;;;;;;;;;;5006175;28;20034;-68
2023/07/22 11:44:09;;;;;;;7.35;5.00;;;;;;;;;;4972209;28;20437;-67
2023/07/22 11:46:55;;;;;;;7.57;5.10;;;;;;;;;;5002268;28;20050;-67
2023/07/22 11:49:25;;;;;;;7.07;5.10;;;;;;;;;;4992866;28;20683;-68
2023/07/22 11:51:50;;;;;;;;;;;;;;;;;;5009295;23;20600;-68
2023/07/22 11:54:17;;;;;;;6.95;4.75;;;;;;;;;;5030153;28;20365;-69
2023/07/22 11:56:42;;;;;;;8.25;4.60;;;;;;;;;;5031207;28;20033;-69
2023/07/22 11:59:08;;;;;;;6.43;4.57;;;;;;;;;;5027732;28;21676;-69
2023/07/22 12:01:33;;;;;;;7.53;4.72;;;;;;;;;;5024049;28;20069;-67
2023/07/22 12:03:58;;;;;;;7.07;4.53;;;;;;;;;;5012100;28;20054;-70
2023/07/22 12:06:27;;;;;;;5.47;4.13;;;;;;;;;;5027739;28;20041;-68
2023/07/22 12:08:52;;;;;;;6.43;4.78;;;;;;;;;;4993014;28;20300;-71
2023/07/22 12:11:18;;;;;;;8.77;4.67;;;;;;;;;;5008426;28;20528;-72
2023/07/22 12:13:46;;;;;;;6.75;4.38;;;;;;;;;;5023423;28;20327;-69
2023/07/22 12:16:11;;;;;;;6.55;4.60;;;;;;;;;;5026351;28;20494;-69
2023/07/22 12:18:42;;;;;;;6.70;4.25;;;;;;;;;;5005552;28;20109;-69
2023/07/22 12:21:08;;;;;;;6.60;4.10;;;;;;;;;;5023726;28;20104;-66
2023/07/22 12:23:34;;;;;;;5.90;4.03;;;;;;;;;;5024355;28;20088;-68
2023/07/22 12:25:59;;;;;;;6.40;4.00;;;;;;;;;;5007417;28;20053;-71
2023/07/22 12:28:24;;;;;;;8.13;4.50;;;;;;;;;;5008328;28;20529;-70
2023/07/22 12:30:49;;;;;;;7.13;4.23;;;;;;;;;;5027288;28;20360;-72
2023/07/22 12:33:15;;;;;;;6.60;4.50;;;;;;;;;;5025954;28;20134;-70
2023/07/22 12:35:40;;;;;;;6.17;4.50;;;;;;;;;;5025392;28;20045;-67
2023/07/22 12:38:05;;;;;;;6.17;4.13;;;;;;;;;;5023056;28;20292;-69
2023/07/22 12:40:30;;;;;;;6.30;4.20;;;;;;;;;;5032808;28;20314;-69
2023/07/22 12:42:56;;;;;;;6.80;4.00;;;;;;;;;;5028278;28;20231;-68
2023/07/22 12:45:22;;;;;;;6.20;4.13;;;;;;;;;;5026841;28;20280;-70
2023/07/22 12:47:48;;;;;;;6.95;4.28;;;;;;;;;;5026482;28;20276;-69
2023/07/22 12:50:13;;;;;;;7.40;3.85;;;;;;;;;;5026752;28;20038;-69
2023/07/22 12:52:39;;;;;;;7.18;3.88;;;;;;;;;;5025386;28;20065;-68
2023/07/22 12:55:04;;;;;;;6.77;4.50;;;;;;;;;;5024664;28;20535;-69
2023/07/22 12:57:29;;;;;;;5.97;4.07;;;;;;;;;;5028462;28;20056;-70
2023/07/22 12:59:54;;;;;;;6.40;4.00;;;;;;;;;;5025682;28;20464;-71
2023/07/22 13:02:20;;;;;;;6.53;3.77;;;;;;;;;;5022038;28;20326;-68
2023/07/22 13:04:45;;;;;;;5.97;4.23;;;;;;;;;;5006390;28;20056;-67
2023/07/22 13:07:10;;;;;;;6.70;3.72;;;;;;;;;;5004907;28;20382;-69
2023/07/22 13:09:47;;;;;;;7.03;4.15;;;;;;;;;;5024432;28;20029;-69
2023/07/22 13:12:12;;;;;;;6.43;3.67;;;;;;;;;;5001819;28;20058;-72
2023/07/22 13:14:37;;;;;;;5.77;3.60;;;;;;;;;;5005176;28;20048;-71
2023/07/22 13:17:03;;;;;;;5.30;3.97;;;;;;;;;;5023909;28;20100;-69
2023/07/22 13:19:28;;;;;;;5.57;3.85;;;;;;;;;;5022315;28;20069;-70
2023/07/22 13:21:53;;;;;;;6.07;3.50;;;;;;;;;;5025039;28;20045;-74
2023/07/22 13:24:19;;;;;;;5.75;3.50;;;;;;;;;;4999724;28;20284;-65
2023/07/22 13:26:44;;;;;;;5.60;3.30;;;;;;;;;;5024868;28;20034;-68
2023/07/22 13:29:09;;;;;;;6.27;3.27;;;;;;;;;;5025329;28;20328;-71
2023/07/22 13:31:34;;;;;;;7.43;3.73;;;;;;;;;;5024735;28;20284;-69
2023/07/22 13:34:00;;;;;;;5.30;3.57;;;;;;;;;;5022617;28;20834;-68
2023/07/22 13:36:25;;;;;;;5.70;3.50;;;;;;;;;;5022536;28;20381;-68
2023/07/22 13:38:50;;;;;;;4.93;3.40;;;;;;;;;;5022247;28;20047;-70
2023/07/22 13:41:15;;;;;;;6.60;3.65;;;;;;;;;;5027944;28;20280;-70
2023/07/22 13:43:41;;;;;;;6.60;3.43;;;;;;;;;;5023854;28;20037;-71
2023/07/22 13:46:06;;;;;;;6.32;3.65;;;;;;;;;;5035114;28;20294;-68
2023/07/22 13:48:31;;;;;;;6.27;3.80;;;;;;;;;;5031929;28;20037;-70
2023/07/22 13:50:56;;;;;;;5.50;3.47;;;;;;;;;;5023240;28;20458;-69
2023/07/22 13:53:22;;;;;;;4.83;3.43;;;;;;;;;;5006592;28;20145;-68
2023/07/22 13:55:47;;;;;;;6.03;3.20;;;;;;;;;;5023179;28;20276;-67
2023/07/22 13:58:12;;;;;;;5.05;3.15;;;;;;;;;;5014640;28;20037;-67
2023/07/22 14:00:38;;;;;;;5.18;2.92;;;;;;;;;;5015675;28;20029;-69
2023/07/22 14:03:03;;;;;;;6.72;3.97;;;;;;;;;;4995060;28;20055;-66
2023/07/22 14:05:29;;;;;;;5.82;2.85;;;;;;;;;;5013248;28;20411;-69
2023/07/22 14:07:54;;;;;;;4.87;2.93;;;;;;;;;;5013667;28;20030;-66
2023/07/22 14:10:19;;;;;;;5.47;3.03;;;;;;;;;;5011825;28;20046;-68
2023/07/22 14:12:44;;;;;;;4.60;2.70;;;;;;;;;;4990464;28;20312;-67
2023/07/22 14:15:10;;;;;;;5.43;3.00;;;;;;;;;;5012732;28;20292;-68
2023/07/22 14:17:37;;;;;;;6.20;3.53;;;;;;;;;;4992405;28;20304;-67
2023/07/22 14:20:04;;;;;;;5.30;3.13;;;;;;;;;;5014850;28;20034;-67
2023/07/22 14:22:29;;;;;;;4.95;2.80;;;;;;;;;;5011597;28;20068;-69
2023/07/22 14:24:55;;;;;;;6.20;3.27;;;;;;;;;;4990314;28;20061;-66
2023/07/22 14:27:20;;;;;;;5.05;3.28;;;;;;;;;;5012084;28;20351;-66
2023/07/22 14:29:45;;;;;;;4.68;3.00;;;;;;;;;;5005335;28;20103;-68